sensor_id;sensor_type;location;lat;lon;timestamp;P1;durP1;ratioP1;P2;durP2;ratioP2
8562;SDS011;16392;52.508;13.468;2022-11-30T00:01:17;406.33;;;77.93;;
8562;SDS011;16392;52.508;13.468;2022-11-30T00:03:44;388.03;;;68.93;;
8562;SDS011;16392;52.508;13.468;2022-11-30T00:06:12;396.07;;;73.67;;
8562;SDS011;16392;52.508;13.468;2022-11-30T00:08:41;382.50;;;68.43;;
8562;SDS011;16392;52.508;13.468;2022-11-30T00:11:08;382.20;;;68.10;;
8562;SDS011;16392;52.508;13.468;2022-11-30T00:13:36;388.53;;;71.97;;
8562;SDS011;16392;52.508;13.468;2022-11-30T00:16:03;387.70;;;68.20;;
8562;SDS011;16392;52.508;13.468;2022-11-30T00:18:30;385.90;;;72.90;;
8562;SDS011;16392;52.508;13.468;2022-11-30T00:20:58;386.87;;;70.67;;
8562;SDS011;16392;52.508;13.468;2022-11-30T00:23:25;391.40;;;72.07;;
8562;SDS011;16392;52.508;13.468;2022-11-30T00:25:53;387.43;;;70.03;;
8562;SDS011;16392;52.508;13.468;2022-11-30T00:28:20;383.80;;;66.97;;
8562;SDS011;16392;52.508;13.468;2022-11-30T00:30:55;392.77;;;77.43;;
8562;SDS011;16392;52.508;13.468;2022-11-30T00:33:22;390.10;;;72.70;;
8562;SDS011;16392;52.508;13.468;2022-11-30T00:35:54;389.90;;;70.23;;
8562;SDS011;16392;52.508;13.468;2022-11-30T00:38:21;388.33;;;72.20;;
8562;SDS011;16392;52.508;13.468;2022-11-30T00:40:48;384.57;;;69.87;;
8562;SDS011;16392;52.508;13.468;2022-11-30T00:43:16;384.40;;;69.47;;
8562;SDS011;16392;52.508;13.468;2022-11-30T00:45:42;385.30;;;69.30;;
8562;SDS011;16392;52.508;13.468;2022-11-30T00:48:09;388.07;;;70.90;;
8562;SDS011;16392;52.508;13.468;2022-11-30T00:50:36;387.63;;;71.33;;
8562;SDS011;16392;52.508;13.468;2022-11-30T00:53:03;397.53;;;74.07;;
8562;SDS011;16392;52.508;13.468;2022-11-30T00:55:29;393.57;;;68.80;;
8562;SDS011;16392;52.508;13.468;2022-11-30T00:57:57;392.73;;;70.57;;
8562;SDS011;16392;52.508;13.468;2022-11-30T01:00:25;389.87;;;70.47;;
8562;SDS011;16392;52.508;13.468;2022-11-30T01:02:52;384.17;;;67.07;;
8562;SDS011;16392;52.508;13.468;2022-11-30T01:05:19;384.73;;;71.50;;
8562;SDS011;16392;52.508;13.468;2022-11-30T01:07:46;385.10;;;68.83;;
8562;SDS011;16392;52.508;13.468;2022-11-30T01:10:12;383.03;;;68.43;;
8562;SDS011;16392;52.508;13.468;2022-11-30T01:12:39;387.23;;;70.73;;
8562;SDS011;16392;52.508;13.468;2022-11-30T01:15:06;381.30;;;66.83;;
8562;SDS011;16392;52.508;13.468;2022-11-30T01:17:34;381.07;;;67.33;;
8562;SDS011;16392;52.508;13.468;2022-11-30T01:20:01;383.03;;;71.63;;
8562;SDS011;16392;52.508;13.468;2022-11-30T01:22:28;384.77;;;67.23;;
8562;SDS011;16392;52.508;13.468;2022-11-30T01:24:55;382.37;;;67.30;;
8562;SDS011;16392;52.508;13.468;2022-11-30T01:27:21;383.93;;;70.97;;
8562;SDS011;16392;52.508;13.468;2022-11-30T01:29:48;383.03;;;67.77;;
8562;SDS011;16392;52.508;13.468;2022-11-30T01:32:15;389.93;;;69.90;;
8562;SDS011;16392;52.508;13.468;2022-11-30T01:34:43;387.20;;;70.30;;
8562;SDS011;16392;52.508;13.468;2022-11-30T01:37:10;381.83;;;67.57;;
8562;SDS011;16392;52.508;13.468;2022-11-30T01:39:36;381.80;;;67.03;;
8562;SDS011;16392;52.508;13.468;2022-11-30T01:42:03;384.43;;;66.60;;
8562;SDS011;16392;52.508;13.468;2022-11-30T01:44:48;385.23;;;71.30;;
8562;SDS011;16392;52.508;13.468;2022-11-30T01:47:17;385.03;;;70.07;;
8562;SDS011;16392;52.508;13.468;2022-11-30T01:49:49;380.00;;;65.70;;
8562;SDS011;16392;52.508;13.468;2022-11-30T01:52:19;386.70;;;72.47;;
8562;SDS011;16392;52.508;13.468;2022-11-30T01:54:50;390.60;;;73.03;;
8562;SDS011;16392;52.508;13.468;2022-11-30T01:57:20;381.63;;;66.77;;
8562;SDS011;16392;52.508;13.468;2022-11-30T01:59:51;384.20;;;70.70;;
8562;SDS011;16392;52.508;13.468;2022-11-30T02:02:21;384.20;;;67.57;;
8562;SDS011;16392;52.508;13.468;2022-11-30T02:04:53;382.30;;;66.13;;
8562;SDS011;16392;52.508;13.468;2022-11-30T02:07:20;386.60;;;70.43;;
8562;SDS011;16392;52.508;13.468;2022-11-30T02:09:47;381.40;;;67.07;;
8562;SDS011;16392;52.508;13.468;2022-11-30T02:12:15;380.87;;;67.13;;
8562;SDS011;16392;52.508;13.468;2022-11-30T02:14:51;383.23;;;68.50;;
8562;SDS011;16392;52.508;13.468;2022-11-30T02:17:23;384.90;;;69.03;;
8562;SDS011;16392;52.508;13.468;2022-11-30T02:20:01;388.03;;;74.77;;
8562;SDS011;16392;52.508;13.468;2022-11-30T02:22:56;378.93;;;67.87;;
8562;SDS011;16392;52.508;13.468;2022-11-30T02:25:35;381.60;;;68.40;;
8562;SDS011;16392;52.508;13.468;2022-11-30T02:28:14;383.13;;;71.40;;
8562;SDS011;16392;52.508;13.468;2022-11-30T02:31:02;385.27;;;72.70;;
8562;SDS011;16392;52.508;13.468;2022-11-30T02:33:33;384.20;;;69.23;;
8562;SDS011;16392;52.508;13.468;2022-11-30T02:36:01;389.27;;;69.67;;
8562;SDS011;16392;52.508;13.468;2022-11-30T02:38:30;387.40;;;71.47;;
8562;SDS011;16392;52.508;13.468;2022-11-30T02:40:58;379.20;;;64.73;;
8562;SDS011;16392;52.508;13.468;2022-11-30T02:43:25;381.93;;;69.43;;
8562;SDS011;16392;52.508;13.468;2022-11-30T02:45:56;378.70;;;66.10;;
8562;SDS011;16392;52.508;13.468;2022-11-30T02:48:31;382.00;;;69.43;;
8562;SDS011;16392;52.508;13.468;2022-11-30T02:51:06;381.40;;;65.80;;
8562;SDS011;16392;52.508;13.468;2022-11-30T02:53:34;386.37;;;68.43;;
8562;SDS011;16392;52.508;13.468;2022-11-30T02:56:01;386.13;;;68.53;;
8562;SDS011;16392;52.508;13.468;2022-11-30T02:58:29;386.30;;;69.03;;
8562;SDS011;16392;52.508;13.468;2022-11-30T03:00:57;380.47;;;66.30;;
8562;SDS011;16392;52.508;13.468;2022-11-30T03:03:24;382.63;;;68.13;;
8562;SDS011;16392;52.508;13.468;2022-11-30T03:05:51;381.33;;;67.43;;
8562;SDS011;16392;52.508;13.468;2022-11-30T03:08:17;381.10;;;69.03;;
8562;SDS011;16392;52.508;13.468;2022-11-30T03:10:44;381.93;;;66.60;;
8562;SDS011;16392;52.508;13.468;2022-11-30T03:13:10;386.10;;;71.00;;
8562;SDS011;16392;52.508;13.468;2022-11-30T03:15:37;380.80;;;65.90;;
8562;SDS011;16392;52.508;13.468;2022-11-30T03:18:05;382.10;;;69.87;;
8562;SDS011;16392;52.508;13.468;2022-11-30T03:20:31;382.10;;;68.73;;
8562;SDS011;16392;52.508;13.468;2022-11-30T03:22:58;392.23;;;72.70;;
8562;SDS011;16392;52.508;13.468;2022-11-30T03:25:26;381.60;;;68.03;;
8562;SDS011;16392;52.508;13.468;2022-11-30T03:27:52;408.57;;;75.57;;
8562;SDS011;16392;52.508;13.468;2022-11-30T03:30:19;381.80;;;67.80;;
8562;SDS011;16392;52.508;13.468;2022-11-30T03:32:46;381.60;;;67.10;;
8562;SDS011;16392;52.508;13.468;2022-11-30T03:35:14;379.07;;;66.23;;
8562;SDS011;16392;52.508;13.468;2022-11-30T03:37:40;382.07;;;66.00;;
8562;SDS011;16392;52.508;13.468;2022-11-30T03:40:07;381.33;;;65.60;;
8562;SDS011;16392;52.508;13.468;2022-11-30T03:42:35;386.40;;;68.67;;
8562;SDS011;16392;52.508;13.468;2022-11-30T03:45:02;388.37;;;68.43;;
8562;SDS011;16392;52.508;13.468;2022-11-30T03:47:29;385.30;;;67.10;;
8562;SDS011;16392;52.508;13.468;2022-11-30T03:49:56;381.47;;;68.50;;
8562;SDS011;16392;52.508;13.468;2022-11-30T03:52:23;383.70;;;67.23;;
8562;SDS011;16392;52.508;13.468;2022-11-30T03:54:50;389.23;;;68.60;;
8562;SDS011;16392;52.508;13.468;2022-11-30T03:57:17;383.40;;;67.80;;
8562;SDS011;16392;52.508;13.468;2022-11-30T03:59:43;383.13;;;68.13;;
8562;SDS011;16392;52.508;13.468;2022-11-30T04:02:10;385.80;;;71.10;;
8562;SDS011;16392;52.508;13.468;2022-11-30T04:04:36;386.43;;;69.30;;
8562;SDS011;16392;52.508;13.468;2022-11-30T04:07:03;380.30;;;66.03;;
8562;SDS011;16392;52.508;13.468;2022-11-30T04:09:31;386.47;;;71.40;;
8562;SDS011;16392;52.508;13.468;2022-11-30T04:11:57;378.93;;;66.33;;
8562;SDS011;16392;52.508;13.468;2022-11-30T04:14:24;381.13;;;67.63;;
8562;SDS011;16392;52.508;13.468;2022-11-30T04:16:50;381.73;;;66.00;;
8562;SDS011;16392;52.508;13.468;2022-11-30T04:19:17;383.33;;;67.83;;
8562;SDS011;16392;52.508;13.468;2022-11-30T04:21:43;384.63;;;69.20;;
8562;SDS011;16392;52.508;13.468;2022-11-30T04:24:10;380.87;;;70.67;;
8562;SDS011;16392;52.508;13.468;2022-11-30T04:26:38;385.47;;;80.87;;
8562;SDS011;16392;52.508;13.468;2022-11-30T04:29:04;394.90;;;75.07;;
8562;SDS011;16392;52.508;13.468;2022-11-30T04:31:31;379.13;;;69.10;;
8562;SDS011;16392;52.508;13.468;2022-11-30T04:33:58;382.37;;;70.47;;
8562;SDS011;16392;52.508;13.468;2022-11-30T04:36:24;381.80;;;70.53;;
8562;SDS011;16392;52.508;13.468;2022-11-30T04:38:51;384.13;;;74.13;;
8562;SDS011;16392;52.508;13.468;2022-11-30T04:41:18;386.47;;;75.47;;
8562;SDS011;16392;52.508;13.468;2022-11-30T04:43:46;383.60;;;72.57;;
8562;SDS011;16392;52.508;13.468;2022-11-30T04:46:12;385.00;;;70.73;;
8562;SDS011;16392;52.508;13.468;2022-11-30T04:48:39;379.63;;;70.77;;
8562;SDS011;16392;52.508;13.468;2022-11-30T04:51:07;394.83;;;71.17;;
8562;SDS011;16392;52.508;13.468;2022-11-30T04:53:34;381.10;;;66.57;;
8562;SDS011;16392;52.508;13.468;2022-11-30T04:56:05;382.43;;;69.53;;
8562;SDS011;16392;52.508;13.468;2022-11-30T04:58:33;381.80;;;69.80;;
8562;SDS011;16392;52.508;13.468;2022-11-30T05:01:01;380.40;;;68.03;;
8562;SDS011;16392;52.508;13.468;2022-11-30T05:03:28;386.50;;;66.63;;
8562;SDS011;16392;52.508;13.468;2022-11-30T05:05:55;379.47;;;67.97;;
8562;SDS011;16392;52.508;13.468;2022-11-30T05:08:21;390.70;;;71.77;;
8562;SDS011;16392;52.508;13.468;2022-11-30T05:10:50;377.03;;;66.23;;
8562;SDS011;16392;52.508;13.468;2022-11-30T05:13:17;378.70;;;67.90;;
8562;SDS011;16392;52.508;13.468;2022-11-30T05:15:44;386.00;;;75.40;;
8562;SDS011;16392;52.508;13.468;2022-11-30T05:18:12;382.40;;;71.97;;
8562;SDS011;16392;52.508;13.468;2022-11-30T05:20:40;379.27;;;67.30;;
8562;SDS011;16392;52.508;13.468;2022-11-30T05:23:08;386.67;;;70.37;;
8562;SDS011;16392;52.508;13.468;2022-11-30T05:25:34;379.67;;;67.80;;
8562;SDS011;16392;52.508;13.468;2022-11-30T05:28:01;391.93;;;72.17;;
8562;SDS011;16392;52.508;13.468;2022-11-30T05:30:27;389.53;;;74.77;;
8562;SDS011;16392;52.508;13.468;2022-11-30T05:32:54;385.67;;;72.70;;
8562;SDS011;16392;52.508;13.468;2022-11-30T05:35:22;393.40;;;71.33;;
8562;SDS011;16392;52.508;13.468;2022-11-30T05:37:49;378.90;;;66.00;;
8562;SDS011;16392;52.508;13.468;2022-11-30T05:40:15;387.40;;;69.47;;
8562;SDS011;16392;52.508;13.468;2022-11-30T05:42:42;383.37;;;69.70;;
8562;SDS011;16392;52.508;13.468;2022-11-30T05:45:09;379.47;;;65.93;;
8562;SDS011;16392;52.508;13.468;2022-11-30T05:47:36;381.17;;;71.13;;
8562;SDS011;16392;52.508;13.468;2022-11-30T05:50:03;380.47;;;68.47;;
8562;SDS011;16392;52.508;13.468;2022-11-30T05:52:33;378.90;;;66.70;;
8562;SDS011;16392;52.508;13.468;2022-11-30T05:55:00;384.67;;;67.90;;
8562;SDS011;16392;52.508;13.468;2022-11-30T05:57:26;389.93;;;67.17;;
8562;SDS011;16392;52.508;13.468;2022-11-30T05:59:53;378.53;;;67.93;;
8562;SDS011;16392;52.508;13.468;2022-11-30T06:02:20;379.27;;;66.83;;
8562;SDS011;16392;52.508;13.468;2022-11-30T06:04:47;387.17;;;69.90;;
8562;SDS011;16392;52.508;13.468;2022-11-30T06:07:14;381.13;;;68.20;;
8562;SDS011;16392;52.508;13.468;2022-11-30T06:09:42;382.60;;;71.03;;
8562;SDS011;16392;52.508;13.468;2022-11-30T06:12:08;404.83;;;76.03;;
8562;SDS011;16392;52.508;13.468;2022-11-30T06:14:35;382.40;;;68.70;;
8562;SDS011;16392;52.508;13.468;2022-11-30T06:17:02;377.60;;;64.30;;
8562;SDS011;16392;52.508;13.468;2022-11-30T06:19:28;379.27;;;68.07;;
8562;SDS011;16392;52.508;13.468;2022-11-30T06:21:55;385.10;;;70.63;;
8562;SDS011;16392;52.508;13.468;2022-11-30T06:24:21;391.63;;;73.47;;
8562;SDS011;16392;52.508;13.468;2022-11-30T06:26:49;381.93;;;69.10;;
8562;SDS011;16392;52.508;13.468;2022-11-30T06:29:16;382.33;;;75.53;;
8562;SDS011;16392;52.508;13.468;2022-11-30T06:31:43;384.03;;;75.23;;
8562;SDS011;16392;52.508;13.468;2022-11-30T06:34:10;381.57;;;66.83;;
8562;SDS011;16392;52.508;13.468;2022-11-30T06:36:36;382.47;;;72.67;;
8562;SDS011;16392;52.508;13.468;2022-11-30T06:39:03;379.63;;;65.90;;
8562;SDS011;16392;52.508;13.468;2022-11-30T06:41:30;385.07;;;72.50;;
8562;SDS011;16392;52.508;13.468;2022-11-30T06:43:58;381.87;;;73.00;;
8562;SDS011;16392;52.508;13.468;2022-11-30T06:46:24;379.83;;;69.33;;
8562;SDS011;16392;52.508;13.468;2022-11-30T06:48:51;382.97;;;70.43;;
8562;SDS011;16392;52.508;13.468;2022-11-30T06:51:18;392.27;;;71.97;;
8562;SDS011;16392;52.508;13.468;2022-11-30T06:53:45;385.03;;;70.73;;
8562;SDS011;16392;52.508;13.468;2022-11-30T06:56:12;380.13;;;67.90;;
8562;SDS011;16392;52.508;13.468;2022-11-30T06:58:38;381.23;;;74.90;;
8562;SDS011;16392;52.508;13.468;2022-11-30T07:01:09;379.80;;;68.13;;
8562;SDS011;16392;52.508;13.468;2022-11-30T07:03:38;389.00;;;66.93;;
8562;SDS011;16392;52.508;13.468;2022-11-30T07:06:07;381.60;;;67.00;;
8562;SDS011;16392;52.508;13.468;2022-11-30T07:08:36;382.83;;;74.73;;
8562;SDS011;16392;52.508;13.468;2022-11-30T07:11:04;388.50;;;72.77;;
8562;SDS011;16392;52.508;13.468;2022-11-30T07:13:31;380.57;;;68.33;;
8562;SDS011;16392;52.508;13.468;2022-11-30T07:15:58;380.47;;;67.87;;
8562;SDS011;16392;52.508;13.468;2022-11-30T07:18:28;383.43;;;71.23;;
8562;SDS011;16392;52.508;13.468;2022-11-30T07:20:57;380.23;;;66.80;;
8562;SDS011;16392;52.508;13.468;2022-11-30T07:23:23;385.73;;;73.70;;
8562;SDS011;16392;52.508;13.468;2022-11-30T07:26:08;386.27;;;78.27;;
8562;SDS011;16392;52.508;13.468;2022-11-30T07:28:35;379.50;;;67.53;;
8562;SDS011;16392;52.508;13.468;2022-11-30T07:31:13;384.07;;;70.00;;
8562;SDS011;16392;52.508;13.468;2022-11-30T07:33:45;380.93;;;68.70;;
8562;SDS011;16392;52.508;13.468;2022-11-30T07:36:12;384.47;;;73.07;;
8562;SDS011;16392;52.508;13.468;2022-11-30T07:38:40;378.43;;;64.30;;
8562;SDS011;16392;52.508;13.468;2022-11-30T07:41:07;386.03;;;71.07;;
8562;SDS011;16392;52.508;13.468;2022-11-30T07:43:34;382.13;;;69.50;;
8562;SDS011;16392;52.508;13.468;2022-11-30T07:46:01;389.70;;;74.37;;
8562;SDS011;16392;52.508;13.468;2022-11-30T07:48:28;380.60;;;69.07;;
8562;SDS011;16392;52.508;13.468;2022-11-30T07:51:01;384.13;;;70.33;;
8562;SDS011;16392;52.508;13.468;2022-11-30T07:53:28;381.90;;;68.13;;
8562;SDS011;16392;52.508;13.468;2022-11-30T07:55:59;390.57;;;76.80;;
8562;SDS011;16392;52.508;13.468;2022-11-30T07:58:27;387.77;;;73.23;;
8562;SDS011;16392;52.508;13.468;2022-11-30T08:00:54;381.73;;;68.80;;
8562;SDS011;16392;52.508;13.468;2022-11-30T08:03:20;384.80;;;69.73;;
8562;SDS011;16392;52.508;13.468;2022-11-30T08:05:47;401.13;;;70.47;;
8562;SDS011;16392;52.508;13.468;2022-11-30T08:08:15;383.13;;;68.03;;
8562;SDS011;16392;52.508;13.468;2022-11-30T08:10:42;386.40;;;68.93;;
8562;SDS011;16392;52.508;13.468;2022-11-30T08:13:08;392.20;;;72.33;;
8562;SDS011;16392;52.508;13.468;2022-11-30T08:15:35;382.27;;;71.17;;
8562;SDS011;16392;52.508;13.468;2022-11-30T08:18:01;380.57;;;65.30;;
8562;SDS011;16392;52.508;13.468;2022-11-30T08:20:31;384.13;;;66.40;;
8562;SDS011;16392;52.508;13.468;2022-11-30T08:22:57;383.87;;;69.37;;
8562;SDS011;16392;52.508;13.468;2022-11-30T08:25:25;380.33;;;64.97;;
8562;SDS011;16392;52.508;13.468;2022-11-30T08:27:53;381.77;;;65.50;;
8562;SDS011;16392;52.508;13.468;2022-11-30T08:30:19;383.00;;;68.47;;
8562;SDS011;16392;52.508;13.468;2022-11-30T08:32:46;394.57;;;75.27;;
8562;SDS011;16392;52.508;13.468;2022-11-30T08:35:12;387.03;;;69.40;;
8562;SDS011;16392;52.508;13.468;2022-11-30T08:37:39;387.40;;;71.10;;
8562;SDS011;16392;52.508;13.468;2022-11-30T08:40:06;384.33;;;65.37;;
8562;SDS011;16392;52.508;13.468;2022-11-30T08:42:35;382.40;;;66.80;;
8562;SDS011;16392;52.508;13.468;2022-11-30T08:45:02;389.50;;;68.07;;
8562;SDS011;16392;52.508;13.468;2022-11-30T08:47:29;382.90;;;66.67;;
8562;SDS011;16392;52.508;13.468;2022-11-30T08:49:55;384.47;;;68.43;;
8562;SDS011;16392;52.508;13.468;2022-11-30T08:52:22;384.57;;;68.07;;
8562;SDS011;16392;52.508;13.468;2022-11-30T08:54:49;393.13;;;67.10;;
8562;SDS011;16392;52.508;13.468;2022-11-30T08:57:17;385.97;;;64.43;;
8562;SDS011;16392;52.508;13.468;2022-11-30T08:59:46;383.03;;;66.43;;
8562;SDS011;16392;52.508;13.468;2022-11-30T09:02:14;401.03;;;73.97;;
8562;SDS011;16392;52.508;13.468;2022-11-30T09:04:42;388.97;;;67.53;;
8562;SDS011;16392;52.508;13.468;2022-11-30T09:07:09;383.43;;;64.63;;
8562;SDS011;16392;52.508;13.468;2022-11-30T09:09:36;387.07;;;66.60;;
8562;SDS011;16392;52.508;13.468;2022-11-30T09:12:02;390.27;;;73.80;;
8562;SDS011;16392;52.508;13.468;2022-11-30T09:14:29;385.97;;;66.00;;
8562;SDS011;16392;52.508;13.468;2022-11-30T09:16:58;396.00;;;71.03;;
8562;SDS011;16392;52.508;13.468;2022-11-30T09:19:24;394.03;;;68.87;;
8562;SDS011;16392;52.508;13.468;2022-11-30T09:21:51;388.53;;;65.83;;
8562;SDS011;16392;52.508;13.468;2022-11-30T09:24:18;388.17;;;67.23;;
8562;SDS011;16392;52.508;13.468;2022-11-30T09:26:45;389.17;;;67.47;;
8562;SDS011;16392;52.508;13.468;2022-11-30T09:29:12;392.37;;;72.33;;
8562;SDS011;16392;52.508;13.468;2022-11-30T09:31:38;391.90;;;72.23;;
8562;SDS011;16392;52.508;13.468;2022-11-30T09:34:08;395.17;;;70.93;;
8562;SDS011;16392;52.508;13.468;2022-11-30T09:36:36;394.60;;;70.43;;
8562;SDS011;16392;52.508;13.468;2022-11-30T09:39:03;399.60;;;74.77;;
8562;SDS011;16392;52.508;13.468;2022-11-30T09:41:46;398.83;;;68.83;;
8562;SDS011;16392;52.508;13.468;2022-11-30T09:44:33;393.33;;;68.83;;
8562;SDS011;16392;52.508;13.468;2022-11-30T09:47:09;396.37;;;66.90;;
8562;SDS011;16392;52.508;13.468;2022-11-30T09:49:50;389.67;;;71.20;;
8562;SDS011;16392;52.508;13.468;2022-11-30T09:52:17;387.70;;;66.63;;
8562;SDS011;16392;52.508;13.468;2022-11-30T09:54:46;394.47;;;68.07;;
8562;SDS011;16392;52.508;13.468;2022-11-30T09:57:18;392.20;;;69.00;;
8562;SDS011;16392;52.508;13.468;2022-11-30T09:59:51;398.57;;;74.20;;
8562;SDS011;16392;52.508;13.468;2022-11-30T10:02:20;390.70;;;68.90;;
8562;SDS011;16392;52.508;13.468;2022-11-30T10:04:52;391.03;;;67.50;;
8562;SDS011;16392;52.508;13.468;2022-11-30T10:07:23;389.33;;;67.17;;
8562;SDS011;16392;52.508;13.468;2022-11-30T10:10:05;398.00;;;72.27;;
8562;SDS011;16392;52.508;13.468;2022-11-30T10:12:40;398.97;;;68.63;;
8562;SDS011;16392;52.508;13.468;2022-11-30T10:15:15;399.60;;;70.00;;
8562;SDS011;16392;52.508;13.468;2022-11-30T10:17:52;393.30;;;69.77;;
8562;SDS011;16392;52.508;13.468;2022-11-30T10:20:31;391.73;;;66.40;;
8562;SDS011;16392;52.508;13.468;2022-11-30T10:23:08;397.63;;;70.43;;
8562;SDS011;16392;52.508;13.468;2022-11-30T10:25:48;402.33;;;72.23;;
8562;SDS011;16392;52.508;13.468;2022-11-30T10:28:22;403.33;;;70.57;;
8562;SDS011;16392;52.508;13.468;2022-11-30T10:30:59;398.67;;;68.67;;
8562;SDS011;16392;52.508;13.468;2022-11-30T10:33:29;399.13;;;67.90;;
8562;SDS011;16392;52.508;13.468;2022-11-30T10:36:04;399.33;;;72.20;;
8562;SDS011;16392;52.508;13.468;2022-11-30T10:38:38;393.87;;;67.50;;
8562;SDS011;16392;52.508;13.468;2022-11-30T10:41:09;401.37;;;73.17;;
8562;SDS011;16392;52.508;13.468;2022-11-30T10:43:41;407.23;;;69.10;;
8562;SDS011;16392;52.508;13.468;2022-11-30T10:46:17;398.40;;;70.97;;
8562;SDS011;16392;52.508;13.468;2022-11-30T10:48:47;402.43;;;73.53;;
8562;SDS011;16392;52.508;13.468;2022-11-30T10:51:20;399.17;;;69.23;;
8562;SDS011;16392;52.508;13.468;2022-11-30T10:53:48;397.23;;;69.70;;
8562;SDS011;16392;52.508;13.468;2022-11-30T10:56:14;399.37;;;68.73;;
8562;SDS011;16392;52.508;13.468;2022-11-30T10:58:43;399.93;;;70.50;;
8562;SDS011;16392;52.508;13.468;2022-11-30T11:01:31;399.93;;;70.77;;
8562;SDS011;16392;52.508;13.468;2022-11-30T11:04:09;402.70;;;70.17;;
8562;SDS011;16392;52.508;13.468;2022-11-30T11:06:42;405.33;;;73.73;;
8562;SDS011;16392;52.508;13.468;2022-11-30T11:11:58;399.37;;;72.43;;
8562;SDS011;16392;52.508;13.468;2022-11-30T11:14:26;399.73;;;70.47;;
8562;SDS011;16392;52.508;13.468;2022-11-30T11:16:55;402.17;;;71.53;;
8562;SDS011;16392;52.508;13.468;2022-11-30T11:19:24;398.13;;;68.23;;
8562;SDS011;16392;52.508;13.468;2022-11-30T11:21:58;400.00;;;70.30;;
8562;SDS011;16392;52.508;13.468;2022-11-30T11:24:27;402.90;;;72.60;;
8562;SDS011;16392;52.508;13.468;2022-11-30T11:26:54;400.43;;;69.40;;
8562;SDS011;16392;52.508;13.468;2022-11-30T11:29:23;401.63;;;70.70;;
8562;SDS011;16392;52.508;13.468;2022-11-30T11:34:50;405.93;;;76.47;;
8562;SDS011;16392;52.508;13.468;2022-11-30T11:37:23;401.93;;;72.57;;
8562;SDS011;16392;52.508;13.468;2022-11-30T11:39:56;403.20;;;73.13;;
8562;SDS011;16392;52.508;13.468;2022-11-30T11:42:30;398.97;;;69.90;;
8562;SDS011;16392;52.508;13.468;2022-11-30T11:45:00;426.67;;;77.77;;
8562;SDS011;16392;52.508;13.468;2022-11-30T11:47:31;396.27;;;69.10;;
8562;SDS011;16392;52.508;13.468;2022-11-30T11:50:16;403.27;;;75.83;;
8562;SDS011;16392;52.508;13.468;2022-11-30T11:52:51;402.93;;;74.83;;
8562;SDS011;16392;52.508;13.468;2022-11-30T11:55:39;394.60;;;68.90;;
8562;SDS011;16392;52.508;13.468;2022-11-30T11:58:07;407.17;;;74.20;;
8562;SDS011;16392;52.508;13.468;2022-11-30T12:00:40;401.60;;;70.77;;
8562;SDS011;16392;52.508;13.468;2022-11-30T12:03:11;397.43;;;68.63;;
8562;SDS011;16392;52.508;13.468;2022-11-30T12:05:44;400.07;;;73.30;;
8562;SDS011;16392;52.508;13.468;2022-11-30T12:08:24;397.43;;;70.10;;
8562;SDS011;16392;52.508;13.468;2022-11-30T12:10:59;400.47;;;72.27;;
8562;SDS011;16392;52.508;13.468;2022-11-30T12:13:30;403.33;;;74.10;;
8562;SDS011;16392;52.508;13.468;2022-11-30T12:16:03;395.23;;;69.33;;
8562;SDS011;16392;52.508;13.468;2022-11-30T12:18:41;400.53;;;71.80;;
8562;SDS011;16392;52.508;13.468;2022-11-30T12:21:15;402.10;;;70.27;;
8562;SDS011;16392;52.508;13.468;2022-11-30T12:23:56;410.83;;;78.57;;
8562;SDS011;16392;52.508;13.468;2022-11-30T12:26:33;395.60;;;69.20;;
8562;SDS011;16392;52.508;13.468;2022-11-30T12:29:15;400.33;;;79.37;;
8562;SDS011;16392;52.508;13.468;2022-11-30T12:32:07;399.53;;;75.07;;
8562;SDS011;16392;52.508;13.468;2022-11-30T12:34:47;396.57;;;71.13;;
8562;SDS011;16392;52.508;13.468;2022-11-30T12:37:27;402.80;;;77.03;;
8562;SDS011;16392;52.508;13.468;2022-11-30T12:40:03;401.07;;;71.17;;
8562;SDS011;16392;52.508;13.468;2022-11-30T12:42:48;407.43;;;82.23;;
8562;SDS011;16392;52.508;13.468;2022-11-30T12:45:22;404.60;;;74.40;;
8562;SDS011;16392;52.508;13.468;2022-11-30T12:47:55;398.27;;;72.80;;
8562;SDS011;16392;52.508;13.468;2022-11-30T12:50:33;396.03;;;69.80;;
8562;SDS011;16392;52.508;13.468;2022-11-30T12:53:10;403.07;;;68.90;;
8562;SDS011;16392;52.508;13.468;2022-11-30T12:55:47;412.17;;;77.67;;
8562;SDS011;16392;52.508;13.468;2022-11-30T12:58:24;402.40;;;71.00;;
8562;SDS011;16392;52.508;13.468;2022-11-30T13:01:02;397.67;;;71.20;;
8562;SDS011;16392;52.508;13.468;2022-11-30T13:03:42;402.87;;;74.03;;
8562;SDS011;16392;52.508;13.468;2022-11-30T13:06:14;404.77;;;73.40;;
8562;SDS011;16392;52.508;13.468;2022-11-30T13:08:47;396.43;;;73.30;;
8562;SDS011;16392;52.508;13.468;2022-11-30T13:11:21;410.07;;;77.23;;
8562;SDS011;16392;52.508;13.468;2022-11-30T13:13:53;394.27;;;69.70;;
8562;SDS011;16392;52.508;13.468;2022-11-30T13:16:21;403.97;;;77.50;;
8562;SDS011;16392;52.508;13.468;2022-11-30T13:18:50;395.63;;;70.13;;
8562;SDS011;16392;52.508;13.468;2022-11-30T13:21:23;394.63;;;70.57;;
8562;SDS011;16392;52.508;13.468;2022-11-30T13:23:58;395.03;;;71.23;;
8562;SDS011;16392;52.508;13.468;2022-11-30T13:26:35;393.90;;;72.10;;
8562;SDS011;16392;52.508;13.468;2022-11-30T13:29:13;398.73;;;75.37;;
8562;SDS011;16392;52.508;13.468;2022-11-30T13:31:54;397.60;;;71.23;;
8562;SDS011;16392;52.508;13.468;2022-11-30T13:34:29;387.60;;;68.27;;
8562;SDS011;16392;52.508;13.468;2022-11-30T13:37:03;383.17;;;66.27;;
8562;SDS011;16392;52.508;13.468;2022-11-30T13:39:42;398.30;;;71.40;;
8562;SDS011;16392;52.508;13.468;2022-11-30T13:42:25;402.20;;;75.23;;
8562;SDS011;16392;52.508;13.468;2022-11-30T13:44:57;381.20;;;69.93;;
8562;SDS011;16392;52.508;13.468;2022-11-30T13:47:42;389.67;;;70.73;;
8562;SDS011;16392;52.508;13.468;2022-11-30T13:50:15;382.73;;;67.57;;
8562;SDS011;16392;52.508;13.468;2022-11-30T13:53:16;385.97;;;73.63;;
8562;SDS011;16392;52.508;13.468;2022-11-30T13:55:54;377.57;;;65.47;;
8562;SDS011;16392;52.508;13.468;2022-11-30T13:58:27;387.43;;;71.00;;
8562;SDS011;16392;52.508;13.468;2022-11-30T14:01:19;383.43;;;68.87;;
8562;SDS011;16392;52.508;13.468;2022-11-30T14:07:00;374.33;;;67.17;;
8562;SDS011;16392;52.508;13.468;2022-11-30T14:12:36;396.70;;;78.57;;
8562;SDS011;16392;52.508;13.468;2022-11-30T14:15:26;371.47;;;65.43;;
8562;SDS011;16392;52.508;13.468;2022-11-30T14:17:55;374.40;;;68.37;;
8562;SDS011;16392;52.508;13.468;2022-11-30T14:20:23;379.87;;;71.50;;
8562;SDS011;16392;52.508;13.468;2022-11-30T14:22:57;379.93;;;69.90;;
8562;SDS011;16392;52.508;13.468;2022-11-30T14:25:27;372.47;;;66.60;;
8562;SDS011;16392;52.508;13.468;2022-11-30T14:27:56;369.20;;;67.40;;
8562;SDS011;16392;52.508;13.468;2022-11-30T14:30:23;381.70;;;73.43;;
8562;SDS011;16392;52.508;13.468;2022-11-30T14:32:51;371.00;;;66.10;;
8562;SDS011;16392;52.508;13.468;2022-11-30T14:35:26;367.43;;;64.77;;
8562;SDS011;16392;52.508;13.468;2022-11-30T14:37:55;368.77;;;68.73;;